Time,TemperatureF,DewpointF,PressureIn,WindDirection,WindDirectionDegrees,WindSpeedMPH,WindSpeedGustMPH,Humidity,HourlyPrecipIn,Conditions,Clouds,dailyrainin,SoftwareType,DateUTC
2013-04-14 00:00:00,35.2,23.1,29.97,SW,215,0.0,0.0,61,0.00,,---,0.00,VWS V14.01,2013-04-14 04:00:00,
2013-04-14 00:01:00,35.2,23.1,29.97,SW,215,0.0,0.0,61,0.00,,---,0.00,VWS V14.01,2013-04-14 04:01:00,
2013-04-14 00:02:00,35.2,23.1,29.97,SW,215,0.0,0.0,61,0.00,,---,0.00,VWS V14.01,2013-04-14 04:02:00,
2013-04-14 00:04:00,35.2,23.1,29.97,SW,215,0.0,0.0,61,0.00,,---,0.00,VWS V14.01,2013-04-14 04:04:00,
2013-04-14 00:09:00,35.2,23.5,29.97,SW,215,0.0,0.0,62,0.00,,---,0.00,VWS V14.01,2013-04-14 04:09:00,
2013-04-14 00:14:00,35.0,23.3,29.97,SW,215,0.0,0.0,62,0.00,,---,0.00,VWS V14.01,2013-04-14 04:14:00,
2013-04-14 00:20:00,34.8,23.1,29.97,SW,215,0.0,0.0,62,0.00,,---,0.00,VWS V14.01,2013-04-14 04:20:00,
2013-04-14 00:25:00,34.8,23.5,29.97,SW,215,0.0,0.0,63,0.00,,---,0.00,VWS V14.01,2013-04-14 04:25:00,
2013-04-14 00:30:00,34.8,23.1,29.97,SW,215,0.0,0.0,62,0.00,,---,0.00,VWS V14.01,2013-04-14 04:30:00,
2013-04-14 00:35:00,34.8,23.5,29.97,SW,215,0.0,0.0,63,0.00,,---,0.00,VWS V14.01,2013-04-14 04:35:00,
2013-04-14 00:40:00,34.6,23.4,29.97,SW,215,0.0,0.0,63,0.00,,---,0.00,VWS V14.01,2013-04-14 04:40:00,
2013-04-14 00:45:00,34.3,23.0,29.97,SW,215,0.0,0.0,63,0.00,,---,0.00,VWS V14.01,2013-04-14 04:45:00,
2013-04-14 00:50:00,34.1,22.8,29.97,SW,215,0.0,0.0,63,0.00,,---,0.00,VWS V14.01,2013-04-14 04:50:00,
2013-04-14 00:55:00,33.9,22.7,29.97,SW,215,0.0,0.0,63,0.00,,---,0.00,VWS V14.01,2013-04-14 04:55:00,
2013-04-14 01:01:00,33.7,22.9,29.97,SW,215,0.0,0.0,64,0.00,,---,0.00,VWS V14.01,2013-04-14 05:01:00,
2013-04-14 01:07:00,33.4,22.5,29.97,SW,215,0.0,0.0,64,0.00,,---,0.00,VWS V14.01,2013-04-14 05:07:00,
2013-04-14 01:12:00,33.2,22.4,29.97,SW,215,0.0,0.0,64,0.00,,---,0.00,VWS V14.01,2013-04-14 05:12:00,
2013-04-14 01:17:00,32.8,22.0,29.97,SW,215,0.0,0.0,64,0.00,,---,0.00,VWS V14.01,2013-04-14 05:17:00,
2013-04-14 01:22:00,32.5,21.7,29.97,SW,215,0.0,0.0,64,0.00,,---,0.00,VWS V14.01,2013-04-14 05:22:00,
2013-04-14 01:27:00,32.1,21.7,29.97,SW,215,0.0,0.0,65,0.00,,---,0.00,VWS V14.01,2013-04-14 05:27:00,
2013-04-14 01:33:00,31.9,21.9,29.97,SW,215,0.0,0.0,66,0.00,,---,0.00,VWS V14.01,2013-04-14 05:33:00,
2013-04-14 01:38:00,31.6,21.2,29.97,SW,215,0.0,0.0,65,0.00,,---,0.00,VWS V14.01,2013-04-14 05:38:00,
2013-04-14 01:43:00,31.4,21.4,29.97,SW,215,0.0,0.0,66,0.00,,---,0.00,VWS V14.01,2013-04-14 05:43:00,
2013-04-14 01:48:00,31.0,21.7,29.97,South,170,0.0,0.0,68,0.00,,---,0.00,VWS V14.01,2013-04-14 05:48:00,
2013-04-14 01:53:00,31.0,21.7,29.97,South,170,0.0,0.0,68,0.00,,---,0.00,VWS V14.01,2013-04-14 05:53:00,
2013-04-14 01:59:00,30.9,21.6,29.97,South,170,0.0,0.0,68,0.00,,---,0.00,VWS V14.01,2013-04-14 05:59:00,
2013-04-14 02:04:00,30.7,21.7,29.97,South,170,0.0,0.0,69,0.00,,---,0.00,VWS V14.01,2013-04-14 06:04:00,
2013-04-14 02:09:00,30.5,21.2,29.97,South,170,0.0,0.0,68,0.00,,---,0.00,VWS V14.01,2013-04-14 06:09:00,
2013-04-14 02:14:00,30.5,21.6,29.97,South,170,0.0,0.0,69,0.00,,---,0.00,VWS V14.01,2013-04-14 06:14:00,
2013-04-14 02:19:00,30.3,21.0,29.97,South,170,0.0,0.0,68,0.00,,---,0.00,VWS V14.01,2013-04-14 06:19:00,
2013-04-14 02:25:00,30.3,21.0,29.97,South,170,0.0,0.0,68,0.00,,---,0.00,VWS V14.01,2013-04-14 06:25:00,
2013-04-14 02:30:00,30.3,21.4,29.97,South,170,0.0,0.0,69,0.00,,---,0.00,VWS V14.01,2013-04-14 06:30:00,
2013-04-14 02:35:00,30.5,21.9,29.97,South,170,0.0,0.0,70,0.00,,---,0.00,VWS V14.01,2013-04-14 06:35:00,
2013-04-14 02:40:00,30.5,21.9,29.97,South,170,0.0,0.0,70,0.00,,---,0.00,VWS V14.01,2013-04-14 06:40:00,
2013-04-14 02:45:00,30.5,21.9,29.97,South,170,0.0,0.0,70,0.00,,---,0.00,VWS V14.01,2013-04-14 06:45:00,
2013-04-14 02:50:00,30.7,22.4,29.97,South,170,0.0,0.0,71,0.00,,---,0.00,VWS V14.01,2013-04-14 06:50:00,
2013-04-14 02:55:00,30.9,22.2,29.97,South,170,0.0,0.0,70,0.00,,---,0.00,VWS V14.01,2013-04-14 06:55:00,
2013-04-14 03:00:00,31.0,22.8,29.97,South,170,0.0,0.0,71,0.00,,---,0.00,VWS V14.01,2013-04-14 07:00:00,
2013-04-14 03:05:00,31.0,23.1,29.97,South,170,0.0,0.0,72,0.00,,---,0.00,VWS V14.01,2013-04-14 07:05:00,
2013-04-14 03:10:00,31.2,23.3,29.97,South,170,0.0,0.0,72,0.00,,---,0.00,VWS V14.01,2013-04-14 07:10:00,
2013-04-14 03:15:00,31.6,23.9,29.97,South,170,0.0,0.0,73,0.00,,---,0.00,VWS V14.01,2013-04-14 07:15:00,
2013-04-14 03:21:00,31.6,23.9,29.97,South,170,0.0,0.0,73,0.00,,---,0.00,VWS V14.01,2013-04-14 07:21:00,
2013-04-14 03:27:00,31.6,23.9,29.97,South,170,0.0,0.0,73,0.00,,---,0.00,VWS V14.01,2013-04-14 07:27:00,
2013-04-14 03:32:00,31.6,23.6,29.97,South,170,0.0,0.0,72,0.00,,---,0.00,VWS V14.01,2013-04-14 07:32:00,
2013-04-14 03:37:00,31.8,24.1,29.97,South,170,0.0,0.0,73,0.00,,---,0.00,VWS V14.01,2013-04-14 07:37:00,
2013-04-14 03:42:00,31.9,24.0,29.97,South,170,0.0,0.0,72,0.00,,---,0.00,VWS V14.01,2013-04-14 07:42:00,
2013-04-14 03:47:00,31.9,24.3,29.97,South,170,0.0,0.0,73,0.00,,---,0.00,VWS V14.01,2013-04-14 07:47:00,
2013-04-14 03:52:00,32.1,24.5,29.97,South,170,0.0,0.0,73,0.00,,---,0.00,VWS V14.01,2013-04-14 07:52:00,
2013-04-14 03:57:00,32.1,24.5,29.97,South,170,0.0,0.0,73,0.00,,---,0.00,VWS V14.01,2013-04-14 07:57:00,
2013-04-14 04:02:00,32.1,24.1,30.00,South,170,0.0,0.0,72,0.00,,---,0.00,VWS V14.01,2013-04-14 08:02:00,
2013-04-14 04:08:00,32.3,24.6,30.00,South,170,0.0,0.0,73,0.00,,---,0.00,VWS V14.01,2013-04-14 08:08:00,
2013-04-14 04:13:00,32.3,24.6,30.00,South,170,0.0,0.0,73,0.00,,---,0.00,VWS V14.01,2013-04-14 08:13:00,
2013-04-14 04:18:00,32.3,24.6,30.00,South,170,0.0,0.0,73,0.00,,---,0.00,VWS V14.01,2013-04-14 08:18:00,
2013-04-14 04:23:00,32.5,24.8,30.00,South,170,0.0,0.0,73,0.00,,---,0.00,VWS V14.01,2013-04-14 08:23:00,
2013-04-14 04:28:00,32.5,24.8,30.00,South,170,0.0,0.0,73,0.00,,---,0.00,VWS V14.01,2013-04-14 08:28:00,
2013-04-14 04:33:00,32.5,25.1,30.00,South,170,0.0,0.0,74,0.00,,---,0.00,VWS V14.01,2013-04-14 08:33:00,
2013-04-14 04:38:00,32.7,25.3,30.00,South,170,0.0,0.0,74,0.00,,---,0.00,VWS V14.01,2013-04-14 08:38:00,
2013-04-14 04:43:00,32.7,25.3,30.00,South,170,0.0,0.0,74,0.00,,---,0.00,VWS V14.01,2013-04-14 08:43:00,
2013-04-14 04:49:00,32.7,25.3,30.00,South,170,0.0,0.0,74,0.00,,---,0.00,VWS V14.01,2013-04-14 08:49:00,
2013-04-14 04:54:00,32.8,25.5,30.00,South,170,0.0,0.0,74,0.00,,---,0.00,VWS V14.01,2013-04-14 08:54:00,
2013-04-14 05:00:00,32.8,25.1,30.00,South,170,0.0,0.0,73,0.00,,---,0.00,VWS V14.01,2013-04-14 09:00:00,
2013-04-14 05:05:00,33.0,25.3,30.00,South,170,0.0,0.0,73,0.00,,---,0.00,VWS V14.01,2013-04-14 09:05:00,
2013-04-14 05:10:00,33.0,25.6,30.00,South,170,0.0,0.0,74,0.00,,---,0.00,VWS V14.01,2013-04-14 09:10:00,
2013-04-14 05:15:00,33.0,25.6,30.00,South,170,0.0,0.0,74,0.00,,---,0.00,VWS V14.01,2013-04-14 09:15:00,
2013-04-14 05:20:00,33.2,25.8,30.00,South,170,0.0,0.0,74,0.00,,---,0.00,VWS V14.01,2013-04-14 09:20:00,
2013-04-14 05:27:00,33.2,25.8,30.00,South,170,0.0,0.0,74,0.00,,---,0.00,VWS V14.01,2013-04-14 09:27:00,
2013-04-14 05:32:00,33.2,26.1,30.00,South,170,0.0,0.0,75,0.00,,---,0.00,VWS V14.01,2013-04-14 09:32:00,
2013-04-14 05:37:00,33.2,26.1,30.00,South,170,0.0,0.0,75,0.00,,---,0.00,VWS V14.01,2013-04-14 09:37:00,
2013-04-14 05:42:00,33.2,26.1,30.00,South,170,0.0,0.0,75,0.00,,---,0.00,VWS V14.01,2013-04-14 09:42:00,
2013-04-14 05:47:00,33.4,26.3,30.00,South,170,0.0,0.0,75,0.00,,---,0.00,VWS V14.01,2013-04-14 09:47:00,
2013-04-14 05:53:00,33.4,26.3,30.00,South,170,0.0,0.0,75,0.00,,---,0.00,VWS V14.01,2013-04-14 09:53:00,
2013-04-14 05:58:00,33.4,26.3,30.00,South,170,0.0,0.0,75,0.00,,---,0.00,VWS V14.01,2013-04-14 09:58:00,
2013-04-14 06:03:00,33.4,26.3,30.00,South,170,0.0,0.0,75,0.00,,---,0.00,VWS V14.01,2013-04-14 10:03:00,
2013-04-14 06:08:00,33.4,26.3,30.00,South,170,0.0,0.0,75,0.00,,---,0.00,VWS V14.01,2013-04-14 10:08:00,
2013-04-14 06:13:00,33.4,26.3,30.00,South,170,0.0,0.0,75,0.00,,---,0.00,VWS V14.01,2013-04-14 10:13:00,
2013-04-14 06:18:00,33.4,26.3,30.00,South,170,0.0,0.0,75,0.00,,---,0.00,VWS V14.01,2013-04-14 10:18:00,
2013-04-14 06:24:00,33.6,26.5,30.00,South,170,0.0,0.0,75,0.00,,---,0.00,VWS V14.01,2013-04-14 10:24:00,
2013-04-14 06:29:00,33.6,26.5,30.00,South,170,0.0,0.0,75,0.00,,---,0.00,VWS V14.01,2013-04-14 10:29:00,
2013-04-14 06:34:00,33.6,26.5,30.00,South,170,0.0,0.0,75,0.00,,---,0.00,VWS V14.01,2013-04-14 10:34:00,
2013-04-14 06:39:00,33.6,26.5,30.00,South,170,0.0,0.0,75,0.00,,---,0.00,VWS V14.01,2013-04-14 10:39:00,
2013-04-14 06:44:00,33.7,26.7,30.00,South,170,0.0,0.0,75,0.00,,---,0.00,VWS V14.01,2013-04-14 10:44:00,
2013-04-14 06:49:00,33.7,26.7,30.00,South,170,0.0,0.0,75,0.00,,---,0.00,VWS V14.01,2013-04-14 10:49:00,
2013-04-14 06:54:00,33.7,26.7,30.00,South,170,0.0,0.0,75,0.00,,---,0.00,VWS V14.01,2013-04-14 10:54:00,
2013-04-14 07:00:00,33.7,26.7,30.00,South,170,0.0,0.0,75,0.00,,---,0.00,VWS V14.01,2013-04-14 11:00:00,
2013-04-14 07:05:00,33.9,26.9,30.00,South,170,0.0,0.0,75,0.00,,---,0.00,VWS V14.01,2013-04-14 11:05:00,
2013-04-14 07:10:00,33.9,26.9,30.00,South,170,0.0,0.0,75,0.00,,---,0.00,VWS V14.01,2013-04-14 11:10:00,
2013-04-14 07:15:00,33.9,26.5,30.00,South,170,0.0,0.0,74,0.00,,---,0.00,VWS V14.01,2013-04-14 11:15:00,
2013-04-14 07:20:00,33.9,26.9,30.00,South,170,0.0,0.0,75,0.00,,---,0.00,VWS V14.01,2013-04-14 11:20:00,
2013-04-14 07:25:00,34.1,27.0,30.00,South,170,0.0,0.0,75,0.00,,---,0.00,VWS V14.01,2013-04-14 11:25:00,
2013-04-14 07:30:00,34.3,27.2,30.03,SSE,148,0.0,0.0,75,0.00,,---,0.00,VWS V14.01,2013-04-14 11:30:00,
2013-04-14 07:35:00,34.3,27.2,30.03,SSE,148,0.0,0.0,75,0.00,,---,0.00,VWS V14.01,2013-04-14 11:35:00,
2013-04-14 07:41:00,34.3,27.2,30.03,SSE,148,0.0,0.0,75,0.00,,---,0.00,VWS V14.01,2013-04-14 11:41:00,
2013-04-14 07:46:00,34.5,27.4,30.03,SSE,148,0.0,0.0,75,0.00,,---,0.00,VWS V14.01,2013-04-14 11:46:00,
2013-04-14 07:51:00,34.5,27.4,30.03,SE,125,0.0,0.0,75,0.00,,---,0.00,VWS V14.01,2013-04-14 11:51:00,
2013-04-14 07:56:00,34.6,27.5,30.03,SE,125,0.0,0.0,75,0.00,,---,0.00,VWS V14.01,2013-04-14 11:56:00,
2013-04-14 08:01:00,34.6,27.5,30.03,SE,125,0.0,0.0,75,0.00,,---,0.00,VWS V14.01,2013-04-14 12:01:00,
2013-04-14 08:06:00,34.8,27.7,30.03,SE,125,0.0,0.0,75,0.00,,---,0.00,VWS V14.01,2013-04-14 12:06:00,
2013-04-14 08:11:00,34.8,27.7,30.03,NE,35,0.0,0.0,75,0.00,,---,0.00,VWS V14.01,2013-04-14 12:11:00,
2013-04-14 08:16:00,35.0,27.6,30.03,East,80,1.3,1.3,74,0.00,,---,0.00,VWS V14.01,2013-04-14 12:16:00,
2013-04-14 08:21:00,35.2,27.4,30.03,East,80,1.3,1.3,73,0.00,,---,0.00,VWS V14.01,2013-04-14 12:21:00,
2013-04-14 08:27:00,35.5,27.4,30.03,East,80,1.3,1.3,72,0.00,,---,0.00,VWS V14.01,2013-04-14 12:27:00,
2013-04-14 08:32:00,35.5,27.1,30.00,East,80,1.3,1.3,71,0.00,,---,0.00,VWS V14.01,2013-04-14 12:32:00,
2013-04-14 08:37:00,35.7,27.2,30.00,East,80,1.3,1.3,71,0.00,,---,0.00,VWS V14.01,2013-04-14 12:37:00,
2013-04-14 08:42:00,35.7,27.2,30.00,East,80,1.3,1.3,71,0.00,,---,0.00,VWS V14.01,2013-04-14 12:42:00,
2013-04-14 08:47:00,36.1,27.6,30.00,East,80,1.3,1.3,71,0.00,,---,0.00,VWS V14.01,2013-04-14 12:47:00,
2013-04-14 08:52:00,36.3,27.8,30.00,East,80,1.3,1.3,71,0.00,,---,0.00,VWS V14.01,2013-04-14 12:52:00,
2013-04-14 08:57:00,36.3,27.1,30.00,East,80,1.3,1.3,69,0.00,,---,0.00,VWS V14.01,2013-04-14 12:57:00,
2013-04-14 09:02:00,36.3,26.4,30.00,East,80,1.3,1.3,67,0.00,,---,0.00,VWS V14.01,2013-04-14 13:02:00,
2013-04-14 09:07:00,36.3,26.4,30.00,East,80,1.3,1.3,67,0.00,,---,0.00,VWS V14.01,2013-04-14 13:07:00,
2013-04-14 09:13:00,36.3,26.4,30.00,East,80,1.3,1.3,67,0.00,,---,0.00,VWS V14.01,2013-04-14 13:13:00,
2013-04-14 09:18:00,36.3,26.4,30.00,East,80,1.3,1.3,67,0.00,,---,0.00,VWS V14.01,2013-04-14 13:18:00,
2013-04-14 09:23:00,36.3,26.0,30.00,East,80,1.3,1.3,66,0.00,,---,0.00,VWS V14.01,2013-04-14 13:23:00,
2013-04-14 09:28:00,36.4,25.8,30.00,East,80,1.3,1.3,65,0.00,,---,0.00,VWS V14.01,2013-04-14 13:28:00,
2013-04-14 09:33:00,36.6,26.4,30.00,East,80,3.6,3.6,66,0.00,,---,0.00,VWS V14.01,2013-04-14 13:33:00,
2013-04-14 09:38:00,36.4,25.8,30.00,East,80,3.6,3.6,65,0.00,,---,0.00,VWS V14.01,2013-04-14 13:38:00,
2013-04-14 09:43:00,36.4,25.8,30.00,East,80,3.6,3.6,65,0.00,,---,0.00,VWS V14.01,2013-04-14 13:43:00,
2013-04-14 09:48:00,36.6,26.0,30.00,East,80,3.6,3.6,65,0.00,,---,0.00,VWS V14.01,2013-04-14 13:48:00,
2013-04-14 09:53:00,37.2,26.5,30.00,SE,125,3.0,3.6,65,0.00,,---,0.00,VWS V14.01,2013-04-14 13:53:00,
2013-04-14 09:59:00,37.5,26.8,30.00,East,80,7.0,7.0,65,0.00,,---,0.00,VWS V14.01,2013-04-14 13:59:00,
2013-04-14 10:04:00,37.7,26.3,30.00,NE,35,3.0,3.0,63,0.00,,---,0.00,VWS V14.01,2013-04-14 14:04:00,
2013-04-14 10:09:00,38.1,27.0,30.00,East,80,6.0,6.0,64,0.00,,---,0.00,VWS V14.01,2013-04-14 14:09:00,
2013-04-14 10:14:00,38.4,26.9,30.00,ESE,102,11.3,11.3,63,0.00,,---,0.00,VWS V14.01,2013-04-14 14:14:00,
2013-04-14 10:19:00,38.8,26.9,30.00,NNE,12,4.6,14.2,62,0.00,,---,0.00,VWS V14.01,2013-04-14 14:19:00,
2013-04-14 10:25:00,38.2,25.6,30.00,ESE,102,12.9,12.9,60,0.00,,---,0.00,VWS V14.01,2013-04-14 14:25:00,
2013-04-14 10:30:00,38.2,26.0,30.03,South,170,11.6,12.9,61,0.00,,---,0.00,VWS V14.01,2013-04-14 14:30:00,
2013-04-14 10:35:00,37.9,25.6,30.03,SE,125,12.6,12.6,61,0.00,,---,0.00,VWS V14.01,2013-04-14 14:35:00,
2013-04-14 10:40:00,37.9,25.2,30.03,SE,125,6.0,6.0,60,0.00,,---,0.00,VWS V14.01,2013-04-14 14:40:00,
2013-04-14 10:45:00,37.7,25.9,30.03,South,170,12.9,12.9,62,0.00,,---,0.00,VWS V14.01,2013-04-14 14:45:00,
2013-04-14 10:50:00,37.5,25.3,30.03,SE,125,11.3,11.3,61,0.00,,---,0.00,VWS V14.01,2013-04-14 14:50:00,
2013-04-14 10:55:00,37.5,24.9,30.03,SE,125,7.0,11.3,60,0.00,,---,0.00,VWS V14.01,2013-04-14 14:55:00,
2013-04-14 11:00:00,37.5,24.5,30.03,SE,125,10.9,10.9,59,0.00,,---,0.00,VWS V14.01,2013-04-14 15:00:00,
2013-04-14 11:05:00,37.3,24.7,30.03,ESE,102,9.6,9.6,60,0.00,,---,0.00,VWS V14.01,2013-04-14 15:05:00,
2013-04-14 11:10:00,37.2,25.0,30.03,SE,125,5.3,5.3,61,0.00,,---,0.00,VWS V14.01,2013-04-14 15:10:00,
2013-04-14 11:15:00,37.0,24.8,30.03,SE,125,8.3,8.3,61,0.00,,---,0.00,VWS V14.01,2013-04-14 15:15:00,
2013-04-14 11:20:00,37.0,24.8,30.03,East,80,4.3,14.6,61,0.00,,---,0.00,VWS V14.01,2013-04-14 15:20:00,
2013-04-14 11:27:00,36.8,25.4,30.03,SE,125,3.0,4.3,63,0.00,,---,0.00,VWS V14.01,2013-04-14 15:27:00,
2013-04-14 11:32:00,36.8,25.4,30.03,East,80,4.3,4.3,63,0.00,,---,0.00,VWS V14.01,2013-04-14 15:32:00,
2013-04-14 11:37:00,36.8,25.8,30.03,SE,125,4.6,4.6,64,0.00,,---,0.00,VWS V14.01,2013-04-14 15:37:00,
2013-04-14 11:42:00,36.8,26.1,30.03,ESE,102,3.0,3.6,65,0.00,,---,0.00,VWS V14.01,2013-04-14 15:42:00,
2013-04-14 11:47:00,37.0,26.7,30.03,East,80,4.0,4.0,66,0.00,,---,0.00,VWS V14.01,2013-04-14 15:47:00,
2013-04-14 11:53:00,37.3,27.4,30.03,SE,125,4.3,4.3,67,0.00,,---,0.00,VWS V14.01,2013-04-14 15:53:00,
2013-04-14 11:58:00,37.3,27.8,30.03,ESE,102,5.0,5.0,68,0.00,,---,0.00,VWS V14.01,2013-04-14 15:58:00,
2013-04-14 12:03:00,37.2,27.9,30.03,East,80,5.0,5.0,69,0.00,,---,0.00,VWS V14.01,2013-04-14 16:03:00,
2013-04-14 12:08:00,37.3,28.8,30.03,East,80,3.0,3.6,71,0.00,,---,0.00,VWS V14.01,2013-04-14 16:08:00,
2013-04-14 12:13:00,37.5,29.3,30.03,North,350,3.6,3.6,72,0.00,,---,0.00,VWS V14.01,2013-04-14 16:13:00,
2013-04-14 12:19:00,38.1,29.9,30.00,ENE,58,1.3,1.3,72,0.00,,---,0.00,VWS V14.01,2013-04-14 16:19:00,
2013-04-14 12:24:00,38.6,30.0,30.00,NE,35,2.0,2.0,71,0.00,,---,0.00,VWS V14.01,2013-04-14 16:24:00,
2013-04-14 12:29:00,38.6,30.0,30.00,East,80,2.3,2.3,71,0.00,,---,0.00,VWS V14.01,2013-04-14 16:29:00,
2013-04-14 12:34:00,39.3,30.7,30.00,North,350,4.0,4.0,71,0.00,,---,0.00,VWS V14.01,2013-04-14 16:34:00,
2013-04-14 12:39:00,40.6,31.9,30.00,SE,125,5.6,5.6,71,0.00,,---,0.00,VWS V14.01,2013-04-14 16:39:00,
2013-04-14 12:44:00,40.9,31.6,30.00,East,80,4.3,4.3,69,0.00,,---,0.00,VWS V14.01,2013-04-14 16:44:00,
2013-04-14 12:49:00,41.8,32.1,30.00,NE,35,5.3,13.6,68,0.00,,---,0.00,VWS V14.01,2013-04-14 16:49:00,
2013-04-14 12:55:00,42.9,33.1,30.00,NE,35,5.0,5.0,68,0.00,,---,0.00,VWS V14.01,2013-04-14 16:55:00,
2013-04-14 13:00:00,43.1,32.9,30.00,East,80,3.0,3.0,67,0.00,,---,0.00,VWS V14.01,2013-04-14 17:00:00,
2013-04-14 13:05:00,43.6,33.0,29.97,East,80,9.3,9.3,66,0.00,,---,0.00,VWS V14.01,2013-04-14 17:05:00,
2013-04-14 13:10:00,44.7,33.7,29.97,NNE,12,9.3,9.3,65,0.00,,---,0.00,VWS V14.01,2013-04-14 17:10:00,
2013-04-14 13:15:00,45.3,34.2,29.97,SE,125,17.6,17.6,65,0.00,,---,0.00,VWS V14.01,2013-04-14 17:15:00,
2013-04-14 13:21:00,45.3,33.4,29.97,SE,125,9.3,9.3,63,0.00,,---,0.00,VWS V14.01,2013-04-14 17:21:00,
2013-04-14 13:26:00,45.4,33.2,29.97,SE,125,9.3,9.3,62,0.00,,---,0.00,VWS V14.01,2013-04-14 17:26:00,
2013-04-14 13:31:00,46.2,33.5,29.97,SE,125,9.3,9.3,61,0.00,,---,0.00,VWS V14.01,2013-04-14 17:31:00,
2013-04-14 13:36:00,46.2,33.1,29.97,SE,125,9.3,9.3,60,0.00,,---,0.00,VWS V14.01,2013-04-14 17:36:00,
2013-04-14 13:41:00,46.5,33.8,29.97,East,80,8.6,8.6,61,0.00,,---,0.00,VWS V14.01,2013-04-14 17:41:00,
2013-04-14 13:47:00,48.0,34.3,29.97,ENE,58,5.6,5.6,59,0.00,,---,0.00,VWS V14.01,2013-04-14 17:47:00,
2013-04-14 13:52:00,48.3,34.7,29.97,SE,125,19.5,19.5,59,0.00,,---,0.00,VWS V14.01,2013-04-14 17:52:00,
2013-04-14 13:57:00,49.0,35.3,29.97,SE,125,19.5,19.5,59,0.00,,---,0.00,VWS V14.01,2013-04-14 17:57:00,
2013-04-14 14:02:00,49.4,34.8,29.97,ENE,58,8.6,8.6,57,0.00,,---,0.00,VWS V14.01,2013-04-14 18:02:00,
2013-04-14 14:07:00,49.9,35.3,29.97,South,170,9.6,9.6,57,0.00,,---,0.00,VWS V14.01,2013-04-14 18:07:00,
2013-04-14 14:13:00,50.7,36.4,29.97,East,80,6.0,6.0,58,0.00,,---,0.00,VWS V14.01,2013-04-14 18:13:00,
2013-04-14 14:18:00,50.7,35.1,29.94,SE,125,14.2,14.6,55,0.00,,---,0.00,VWS V14.01,2013-04-14 18:18:00,
2013-04-14 14:23:00,51.0,35.9,29.94,East,80,5.6,8.6,56,0.00,,---,0.00,VWS V14.01,2013-04-14 18:23:00,
2013-04-14 14:28:00,51.0,35.4,29.94,SE,125,11.9,11.9,55,0.00,,---,0.00,VWS V14.01,2013-04-14 18:28:00,
2013-04-14 14:33:00,51.7,36.6,29.94,SE,125,14.6,14.6,56,0.00,,---,0.00,VWS V14.01,2013-04-14 18:33:00,
2013-04-14 14:39:00,52.1,35.5,29.94,SE,125,7.9,15.9,53,0.00,,---,0.00,VWS V14.01,2013-04-14 18:39:00,
2013-04-14 14:44:00,52.5,36.3,29.94,East,80,7.3,7.3,54,0.00,,---,0.00,VWS V14.01,2013-04-14 18:44:00,
2013-04-14 14:49:00,51.9,35.3,29.94,ESE,102,16.2,16.2,53,0.00,,---,0.00,VWS V14.01,2013-04-14 18:49:00,
2013-04-14 14:54:00,52.5,35.8,29.94,SE,125,9.6,9.6,53,0.00,,---,0.00,VWS V14.01,2013-04-14 18:54:00,
2013-04-14 14:59:00,53.2,37.0,29.94,SE,125,8.3,8.3,54,0.00,,---,0.00,VWS V14.01,2013-04-14 18:59:00,
2013-04-14 15:05:00,53.5,36.8,29.94,NE,35,4.6,8.9,53,0.00,,---,0.00,VWS V14.01,2013-04-14 19:05:00,
2013-04-14 15:10:00,53.4,36.7,29.94,East,80,7.9,7.9,53,0.00,,---,0.00,VWS V14.01,2013-04-14 19:10:00,
2013-04-14 15:15:00,53.7,37.0,29.94,South,170,8.9,12.6,53,0.00,,---,0.00,VWS V14.01,2013-04-14 19:15:00,
2013-04-14 15:21:00,53.7,37.0,29.94,East,80,6.0,6.0,53,0.00,,---,0.00,VWS V14.01,2013-04-14 19:21:00,
2013-04-14 15:27:00,53.9,36.2,29.94,East,80,2.3,2.3,51,0.00,,---,0.00,VWS V14.01,2013-04-14 19:27:00,
2013-04-14 15:32:00,53.7,36.5,29.94,East,80,10.9,10.9,52,0.00,,---,0.00,VWS V14.01,2013-04-14 19:32:00,
2013-04-14 15:37:00,53.9,36.7,29.94,East,80,10.9,10.9,52,0.00,,---,0.00,VWS V14.01,2013-04-14 19:37:00,
2013-04-14 15:42:00,54.1,36.4,29.94,ESE,102,5.6,5.6,51,0.00,,---,0.00,VWS V14.01,2013-04-14 19:42:00,
2013-04-14 15:47:00,54.1,36.9,29.91,NE,35,15.2,15.2,52,0.00,,---,0.00,VWS V14.01,2013-04-14 19:47:00,
2013-04-14 15:53:00,54.4,36.7,29.91,East,80,6.3,6.3,51,0.00,,---,0.00,VWS V14.01,2013-04-14 19:53:00,
2013-04-14 15:58:00,54.8,37.0,29.91,SE,125,14.9,14.9,51,0.00,,---,0.00,VWS V14.01,2013-04-14 19:58:00,
2013-04-14 16:03:00,54.6,36.9,29.91,SE,125,14.9,14.9,51,0.00,,---,0.00,VWS V14.01,2013-04-14 20:03:00,
2013-04-14 16:08:00,54.8,36.5,29.91,SE,125,14.9,14.9,50,0.00,,---,0.00,VWS V14.01,2013-04-14 20:08:00,
2013-04-14 16:13:00,55.3,37.5,29.91,SE,125,14.9,14.9,51,0.00,,---,0.00,VWS V14.01,2013-04-14 20:13:00,
2013-04-14 16:19:00,55.3,37.0,29.91,SE,125,19.5,19.5,50,0.00,,---,0.00,VWS V14.01,2013-04-14 20:19:00,
2013-04-14 16:24:00,55.0,36.7,29.91,SE,125,19.5,19.5,50,0.00,,---,0.00,VWS V14.01,2013-04-14 20:24:00,
2013-04-14 16:29:00,55.0,36.7,29.91,ENE,58,8.9,19.5,50,0.00,,---,0.00,VWS V14.01,2013-04-14 20:29:00,
2013-04-14 16:35:00,55.0,36.7,29.88,ENE,58,8.9,8.9,50,0.00,,---,0.00,VWS V14.01,2013-04-14 20:35:00,
2013-04-14 16:40:00,55.2,37.4,29.88,ENE,58,8.9,8.9,51,0.00,,---,0.00,VWS V14.01,2013-04-14 20:40:00,
2013-04-14 16:45:00,55.3,37.5,29.88,ENE,58,8.9,8.9,51,0.00,,---,0.00,VWS V14.01,2013-04-14 20:45:00,
2013-04-14 16:50:00,55.2,37.4,29.88,ENE,58,8.9,8.9,51,0.00,,---,0.00,VWS V14.01,2013-04-14 20:50:00,
2013-04-14 16:55:00,55.2,36.9,29.88,SE,125,15.6,15.6,50,0.00,,---,0.00,VWS V14.01,2013-04-14 20:55:00,
2013-04-14 17:00:00,55.0,37.2,29.88,SE,125,15.6,15.6,51,0.00,,---,0.00,VWS V14.01,2013-04-14 21:00:00,
2013-04-14 17:05:00,55.2,37.4,29.88,SE,125,15.6,15.6,51,0.00,,---,0.00,VWS V14.01,2013-04-14 21:05:00,
2013-04-14 17:11:00,55.5,37.7,29.88,SE,125,15.6,15.6,51,0.00,,---,0.00,VWS V14.01,2013-04-14 21:11:00,
2013-04-14 17:16:00,55.3,37.5,29.88,SE,125,15.6,15.6,51,0.00,,---,0.00,VWS V14.01,2013-04-14 21:16:00,
2013-04-14 17:21:00,55.3,37.5,29.88,SE,125,15.6,15.6,51,0.00,,---,0.00,VWS V14.01,2013-04-14 21:21:00,
2013-04-14 17:27:00,55.2,36.9,29.88,SE,125,15.6,15.6,50,0.00,,---,0.00,VWS V14.01,2013-04-14 21:27:00,
2013-04-14 17:32:00,54.6,36.9,29.88,SE,125,15.6,15.6,51,0.00,,---,0.00,VWS V14.01,2013-04-14 21:32:00,
2013-04-14 17:37:00,54.4,36.7,29.88,SE,125,12.9,15.6,51,0.00,,---,0.00,VWS V14.01,2013-04-14 21:37:00,
2013-04-14 17:42:00,54.3,37.0,29.88,SE,125,12.9,12.9,52,0.00,,---,0.00,VWS V14.01,2013-04-14 21:42:00,
2013-04-14 17:47:00,54.4,37.2,29.88,SE,125,12.9,12.9,52,0.00,,---,0.00,VWS V14.01,2013-04-14 21:47:00,
2013-04-14 17:52:00,54.4,37.2,29.88,SE,125,15.6,15.6,52,0.00,,---,0.00,VWS V14.01,2013-04-14 21:52:00,
2013-04-14 17:57:00,53.9,36.7,29.88,SE,125,15.6,15.6,52,0.00,,---,0.00,VWS V14.01,2013-04-14 21:57:00,
2013-04-14 18:03:00,53.9,37.2,29.88,SE,125,15.6,15.6,53,0.00,,---,0.00,VWS V14.01,2013-04-14 22:03:00,
2013-04-14 18:08:00,53.9,37.2,29.88,SE,125,15.6,15.6,53,0.00,,---,0.00,VWS V14.01,2013-04-14 22:08:00,
2013-04-14 18:14:00,53.7,37.0,29.88,SE,125,14.2,14.2,53,0.00,,---,0.00,VWS V14.01,2013-04-14 22:14:00,
2013-04-14 18:19:00,53.7,37.5,29.88,SE,125,14.2,14.2,54,0.00,,---,0.00,VWS V14.01,2013-04-14 22:19:00,
2013-04-14 18:24:00,53.7,37.5,29.88,SE,125,14.2,14.2,54,0.00,,---,0.00,VWS V14.01,2013-04-14 22:24:00,
2013-04-14 18:29:00,53.5,37.3,29.88,SE,125,14.2,14.2,54,0.00,,---,0.00,VWS V14.01,2013-04-14 22:29:00,
2013-04-14 18:34:00,53.4,37.2,29.85,SE,125,14.2,14.2,54,0.00,,---,0.00,VWS V14.01,2013-04-14 22:34:00,
2013-04-14 18:39:00,53.5,37.8,29.85,SE,125,14.2,14.2,55,0.00,,---,0.00,VWS V14.01,2013-04-14 22:39:00,
2013-04-14 18:45:00,53.5,37.8,29.85,SE,125,14.2,14.2,55,0.00,,---,0.00,VWS V14.01,2013-04-14 22:45:00,
2013-04-14 18:50:00,53.4,37.6,29.85,SE,125,14.2,14.2,55,0.00,,---,0.00,VWS V14.01,2013-04-14 22:50:00,
2013-04-14 18:55:00,53.4,38.1,29.85,SE,125,14.2,14.2,56,0.00,,---,0.00,VWS V14.01,2013-04-14 22:55:00,
2013-04-14 19:00:00,53.4,38.1,29.85,SE,125,14.2,14.2,56,0.00,,---,0.00,VWS V14.01,2013-04-14 23:00:00,
2013-04-14 19:05:00,53.2,37.9,29.85,SE,125,14.2,14.2,56,0.00,,---,0.00,VWS V14.01,2013-04-14 23:05:00,
2013-04-14 19:11:00,53.2,37.9,29.85,SE,125,14.2,14.2,56,0.00,,---,0.00,VWS V14.01,2013-04-14 23:11:00,
2013-04-14 19:16:00,53.2,37.9,29.85,SE,125,14.2,14.2,56,0.00,,---,0.00,VWS V14.01,2013-04-14 23:16:00,
2013-04-14 19:21:00,53.2,37.9,29.85,SE,125,15.9,15.9,56,0.00,,---,0.00,VWS V14.01,2013-04-14 23:21:00,
2013-04-14 19:27:00,52.8,38.5,29.85,SE,125,15.9,15.9,58,0.00,,---,0.00,VWS V14.01,2013-04-14 23:27:00,
2013-04-14 19:32:00,52.8,38.5,29.85,SE,125,15.9,15.9,58,0.00,,---,0.00,VWS V14.01,2013-04-14 23:32:00,
2013-04-14 19:37:00,52.6,38.3,29.85,SE,125,15.9,15.9,58,0.00,,---,0.00,VWS V14.01,2013-04-14 23:37:00,
2013-04-14 19:44:00,52.5,38.1,29.85,SE,125,15.9,15.9,58,0.00,,---,0.00,VWS V14.01,2013-04-14 23:44:00,
2013-04-14 19:49:00,52.3,38.4,29.85,SE,125,15.9,15.9,59,0.00,,---,0.00,VWS V14.01,2013-04-14 23:49:00,
2013-04-14 19:54:00,52.1,38.2,29.85,ENE,58,5.3,5.3,59,0.00,,---,0.00,VWS V14.01,2013-04-14 23:54:00,
2013-04-14 19:59:00,52.1,38.2,29.85,ENE,58,5.3,5.3,59,0.00,,---,0.00,VWS V14.01,2013-04-14 23:59:00,
2013-04-14 20:04:00,51.6,38.2,29.85,ENE,58,5.3,5.3,60,0.00,,---,0.00,VWS V14.01,2013-04-15 00:04:00,
2013-04-14 20:09:00,51.4,38.0,29.85,NE,35,8.3,8.3,60,0.00,,---,0.00,VWS V14.01,2013-04-15 00:09:00,
2013-04-14 20:15:00,51.0,38.1,29.85,NE,35,8.3,8.3,61,0.00,,---,0.00,VWS V14.01,2013-04-15 00:15:00,
2013-04-14 20:20:00,50.8,38.3,29.85,NE,35,8.3,8.3,62,0.00,,---,0.00,VWS V14.01,2013-04-15 00:20:00,
2013-04-14 20:25:00,50.7,38.1,29.85,NE,35,8.3,8.3,62,0.00,,---,0.00,VWS V14.01,2013-04-15 00:25:00,
2013-04-14 20:30:00,50.3,38.2,29.85,NE,35,8.3,8.3,63,0.00,,---,0.00,VWS V14.01,2013-04-15 00:30:00,
2013-04-14 20:36:00,50.1,38.0,29.85,NE,35,8.3,8.3,63,0.00,,---,0.00,VWS V14.01,2013-04-15 00:36:00,
2013-04-14 20:41:00,49.9,37.9,29.85,NE,35,8.3,8.3,63,0.00,,---,0.00,VWS V14.01,2013-04-15 00:41:00,
2013-04-14 20:47:00,49.6,37.9,29.85,NE,35,8.3,8.3,64,0.00,,---,0.00,VWS V14.01,2013-04-15 00:47:00,
2013-04-14 20:52:00,49.4,37.8,29.85,NE,35,8.3,8.3,64,0.00,,---,0.00,VWS V14.01,2013-04-15 00:52:00,
2013-04-14 20:57:00,49.2,38.0,29.85,NE,35,8.3,8.3,65,0.00,,---,0.00,VWS V14.01,2013-04-15 00:57:00,
2013-04-14 21:02:00,48.9,38.0,29.85,NE,35,8.3,8.3,66,0.00,,---,0.00,VWS V14.01,2013-04-15 01:02:00,
2013-04-14 21:07:00,48.7,37.8,29.85,NE,35,8.3,8.3,66,0.00,,---,0.00,VWS V14.01,2013-04-15 01:07:00,
2013-04-14 21:13:00,48.5,37.7,29.85,NE,35,8.3,8.3,66,0.00,,---,0.00,VWS V14.01,2013-04-15 01:13:00,
2013-04-14 21:18:00,48.5,37.7,29.85,NE,35,8.3,8.3,66,0.00,,---,0.00,VWS V14.01,2013-04-15 01:18:00,
2013-04-14 21:23:00,48.3,37.9,29.85,NE,35,8.3,8.3,67,0.00,,---,0.00,VWS V14.01,2013-04-15 01:23:00,
2013-04-14 21:28:00,48.1,37.7,29.85,NE,35,8.3,8.3,67,0.00,,---,0.00,VWS V14.01,2013-04-15 01:28:00,
2013-04-14 21:33:00,48.0,37.9,29.85,NE,35,8.3,8.3,68,0.00,,---,0.00,VWS V14.01,2013-04-15 01:33:00,
2013-04-14 21:39:00,47.6,37.2,29.85,NE,35,8.3,8.3,67,0.00,,---,0.00,VWS V14.01,2013-04-15 01:39:00,
2013-04-14 21:44:00,47.4,37.8,29.85,NE,35,8.3,8.3,69,0.00,,---,0.00,VWS V14.01,2013-04-15 01:44:00,
2013-04-14 21:49:00,47.4,37.8,29.85,NE,35,8.3,8.3,69,0.00,,---,0.00,VWS V14.01,2013-04-15 01:49:00,
2013-04-14 21:54:00,47.2,38.0,29.85,NE,35,8.3,8.3,70,0.00,,---,0.00,VWS V14.01,2013-04-15 01:54:00,
2013-04-14 21:59:00,47.1,37.4,29.85,NE,35,8.3,8.3,69,0.00,,---,0.00,VWS V14.01,2013-04-15 01:59:00,
2013-04-14 22:04:00,46.9,37.3,29.85,SE,125,7.3,7.3,69,0.00,,---,0.00,VWS V14.01,2013-04-15 02:04:00,
2013-04-14 22:09:00,46.9,37.3,29.85,SE,125,11.9,11.9,69,0.00,,---,0.00,VWS V14.01,2013-04-15 02:09:00,
2013-04-14 22:14:00,46.7,37.1,29.85,SE,125,11.9,11.9,69,0.00,,---,0.00,VWS V14.01,2013-04-15 02:14:00,
2013-04-14 22:20:00,46.5,36.9,29.85,SE,125,11.9,11.9,69,0.00,,---,0.00,VWS V14.01,2013-04-15 02:20:00,
2013-04-14 22:25:00,46.5,36.9,29.85,SE,125,11.9,11.9,69,0.00,,---,0.00,VWS V14.01,2013-04-15 02:25:00,
2013-04-14 22:30:00,46.3,36.7,29.85,SE,125,11.9,11.9,69,0.00,,---,0.00,VWS V14.01,2013-04-15 02:30:00,
2013-04-14 22:35:00,46.2,36.9,29.85,SE,125,11.9,11.9,70,0.00,,---,0.00,VWS V14.01,2013-04-15 02:35:00,
2013-04-14 22:40:00,46.2,36.6,29.85,SE,125,11.9,11.9,69,0.00,,---,0.00,VWS V14.01,2013-04-15 02:40:00,
2013-04-14 22:45:00,46.2,36.6,29.85,SE,125,11.9,11.9,69,0.00,,---,0.00,VWS V14.01,2013-04-15 02:45:00,
2013-04-14 22:50:00,46.0,36.4,29.85,SE,125,11.3,11.3,69,0.00,,---,0.00,VWS V14.01,2013-04-15 02:50:00,
2013-04-14 22:55:00,46.0,36.4,29.85,SE,125,6.0,11.3,69,0.00,,---,0.00,VWS V14.01,2013-04-15 02:55:00,
2013-04-14 23:01:00,46.0,36.4,29.85,SE,125,6.0,6.0,69,0.00,,---,0.00,VWS V14.01,2013-04-15 03:01:00,
2013-04-14 23:07:00,45.8,36.6,29.85,SE,125,6.0,6.0,70,0.00,,---,0.00,VWS V14.01,2013-04-15 03:07:00,
2013-04-14 23:12:00,45.6,36.4,29.85,SE,125,6.0,6.0,70,0.00,,---,0.00,VWS V14.01,2013-04-15 03:12:00,
2013-04-14 23:17:00,45.4,36.2,29.82,SE,125,6.0,6.0,70,0.00,,---,0.00,VWS V14.01,2013-04-15 03:17:00,
2013-04-14 23:22:00,45.4,36.2,29.82,SE,125,6.0,6.0,70,0.00,,---,0.00,VWS V14.01,2013-04-15 03:22:00,
2013-04-14 23:27:00,45.4,36.2,29.82,SE,125,6.0,6.0,70,0.00,,---,0.00,VWS V14.01,2013-04-15 03:27:00,
2013-04-14 23:32:00,45.3,36.1,29.82,SE,125,6.0,6.0,70,0.00,,---,0.00,VWS V14.01,2013-04-15 03:32:00,
2013-04-14 23:37:00,45.3,36.1,29.82,SE,125,6.0,6.0,70,0.00,,---,0.00,VWS V14.01,2013-04-15 03:37:00,
2013-04-14 23:43:00,45.3,36.1,29.82,SE,125,6.0,6.0,70,0.00,,---,0.00,VWS V14.01,2013-04-15 03:43:00,
2013-04-14 23:48:00,45.1,36.2,29.82,SE,125,6.0,6.0,71,0.00,,---,0.00,VWS V14.01,2013-04-15 03:48:00,
2013-04-14 23:53:00,45.3,36.4,29.82,SE,125,6.0,6.0,71,0.00,,---,0.00,VWS V14.01,2013-04-15 03:53:00,
2013-04-14 23:58:00,45.3,36.4,29.82,SE,125,6.0,6.0,71,0.00,,---,0.00,VWS V14.01,2013-04-15 03:58:00,